Anzahl Datensätze: 286
min. Temperatur: 1.9 °C
max. Temperatur: 17.4 °C
max. Windgeschwindigkeit: 23.0 km/h
Niederschlagsumme: 0.0 mm
| Datum |
Zeit |
Temp °C |
Feuchte % |
Taupunkt °C |
Luftdruck hPa |
Wind km/h |
Windrichtung |
Strahlung w/m² |
Niederschlag mm |
|---|---|---|---|---|---|---|---|---|---|
| 05.03.2026 | 00:02 | 5.4 | 87 | 3.4 | 1024.1 | 6.1 | N | 0 | 0.0 |
| 05.03.2026 | 00:07 | 5.6 | 87 | 3.6 | 1024.0 | 0.0 | N | 0 | 0.0 |
| 05.03.2026 | 00:13 | 5.6 | 86 | 3.4 | 1024.0 | 1.8 | N | 0 | 0.0 |
| 05.03.2026 | 00:18 | 5.3 | 87 | 3.3 | 1024.0 | 4.3 | N | 0 | 0.0 |
| 05.03.2026 | 00:23 | 5.2 | 87 | 3.2 | 1023.9 | 0.0 | N | 0 | 0.0 |
| 05.03.2026 | 00:28 | 5.0 | 87 | 3.0 | 1024.0 | 1.8 | N | 0 | 0.0 |
| 05.03.2026 | 00:33 | 4.8 | 87 | 2.8 | 1024.0 | 4.3 | N | 0 | 0.0 |
| 05.03.2026 | 00:38 | 4.7 | 88 | 2.9 | 1023.9 | 0.0 | N | 0 | 0.0 |
| 05.03.2026 | 00:43 | 4.7 | 88 | 2.9 | 1023.9 | 0.0 | N | 0 | 0.0 |
| 05.03.2026 | 00:48 | 4.7 | 88 | 2.9 | 1023.9 | 1.8 | N | 0 | 0.0 |
| 05.03.2026 | 00:53 | 4.5 | 88 | 2.7 | 1023.9 | 4.3 | N | 0 | 0.0 |
| 05.03.2026 | 00:58 | 4.5 | 88 | 2.7 | 1023.8 | 1.8 | N | 0 | 0.0 |
| 05.03.2026 | 01:03 | 4.5 | 88 | 2.7 | 1023.8 | 4.3 | N | 0 | 0.0 |
| 05.03.2026 | 01:08 | 4.4 | 88 | 2.6 | 1023.8 | 6.1 | N | 0 | 0.0 |
| 05.03.2026 | 01:13 | 4.4 | 88 | 2.6 | 1023.8 | 8.3 | N | 0 | 0.0 |
| 05.03.2026 | 01:18 | 4.5 | 88 | 2.7 | 1023.8 | 6.1 | N | 0 | 0.0 |
| 05.03.2026 | 01:23 | 4.6 | 88 | 2.8 | 1023.7 | 4.3 | N | 0 | 0.0 |
| 05.03.2026 | 01:28 | 4.6 | 88 | 2.8 | 1023.7 | 6.1 | N | 0 | 0.0 |
| 05.03.2026 | 01:33 | 4.4 | 88 | 2.6 | 1023.6 | 8.3 | N | 0 | 0.0 |
| 05.03.2026 | 01:38 | 4.4 | 88 | 2.6 | 1023.5 | 1.8 | N | 0 | 0.0 |
| 05.03.2026 | 01:43 | 4.4 | 88 | 2.6 | 1023.6 | 1.8 | N | 0 | 0.0 |
| 05.03.2026 | 01:48 | 4.3 | 88 | 2.5 | 1023.5 | 1.8 | N | 0 | 0.0 |
| 05.03.2026 | 01:53 | 4.3 | 88 | 2.5 | 1023.5 | 4.3 | N | 0 | 0.0 |
| 05.03.2026 | 01:58 | 4.3 | 88 | 2.5 | 1023.5 | 6.1 | N | 0 | 0.0 |
| 05.03.2026 | 02:03 | 4.2 | 88 | 2.4 | 1023.5 | 4.3 | N | 0 | 0.0 |
| 05.03.2026 | 02:08 | 4.3 | 89 | 2.6 | 1023.4 | 4.3 | N | 0 | 0.0 |
| 05.03.2026 | 02:13 | 4.2 | 88 | 2.4 | 1023.4 | 6.1 | N | 0 | 0.0 |
| 05.03.2026 | 02:18 | 4.2 | 88 | 2.4 | 1023.4 | 6.1 | N | 0 | 0.0 |
| 05.03.2026 | 02:23 | 4.1 | 88 | 2.3 | 1023.3 | 4.3 | NNW | 0 | 0.0 |
| 05.03.2026 | 02:28 | 4.1 | 88 | 2.3 | 1023.3 | 6.1 | NNW | 0 | 0.0 |
| 05.03.2026 | 02:33 | 3.9 | 88 | 2.1 | 1023.2 | 4.3 | NNW | 0 | 0.0 |
| 05.03.2026 | 02:38 | 4.1 | 88 | 2.3 | 1023.2 | 4.3 | NNW | 0 | 0.0 |
| 05.03.2026 | 02:43 | 3.9 | 88 | 2.1 | 1023.0 | 8.3 | NNW | 0 | 0.0 |
| 05.03.2026 | 02:48 | 3.9 | 89 | 2.3 | 1023.1 | 4.3 | NNW | 0 | 0.0 |
| 05.03.2026 | 02:53 | 3.9 | 89 | 2.3 | 1023.0 | 6.1 | NNW | 0 | 0.0 |
| 05.03.2026 | 02:58 | 3.7 | 89 | 2.1 | 1022.9 | 4.3 | NNW | 0 | 0.0 |
| 05.03.2026 | 03:04 | 3.6 | 89 | 2.0 | 1022.9 | 4.3 | NNW | 0 | 0.0 |
| 05.03.2026 | 03:09 | 3.6 | 89 | 2.0 | 1022.9 | 4.3 | NNW | 0 | 0.0 |
| 05.03.2026 | 03:14 | 3.5 | 89 | 1.9 | 1022.8 | 8.3 | NNW | 0 | 0.0 |
| 05.03.2026 | 03:19 | 3.6 | 89 | 2.0 | 1022.8 | 4.3 | NNW | 0 | 0.0 |
| 05.03.2026 | 03:24 | 3.7 | 89 | 2.1 | 1022.8 | 4.3 | N | 0 | 0.0 |
| 05.03.2026 | 03:29 | 3.6 | 88 | 1.8 | 1022.8 | 1.8 | N | 0 | 0.0 |
| 05.03.2026 | 03:34 | 3.5 | 89 | 1.9 | 1022.7 | 6.1 | NNW | 0 | 0.0 |
| 05.03.2026 | 03:39 | 3.4 | 89 | 1.8 | 1022.7 | 6.1 | N | 0 | 0.0 |
| 05.03.2026 | 03:44 | 3.3 | 89 | 1.7 | 1022.6 | 4.3 | NNW | 0 | 0.0 |
| 05.03.2026 | 03:49 | 3.3 | 89 | 1.7 | 1022.6 | 6.1 | N | 0 | 0.0 |
| 05.03.2026 | 03:54 | 3.3 | 89 | 1.7 | 1022.6 | 6.1 | NNW | 0 | 0.0 |
| 05.03.2026 | 03:59 | 3.4 | 89 | 1.8 | 1022.6 | 6.1 | NNW | 0 | 0.0 |
| 05.03.2026 | 04:04 | 3.3 | 89 | 1.7 | 1022.5 | 6.1 | NNW | 0 | 0.0 |
| 05.03.2026 | 04:09 | 3.3 | 89 | 1.7 | 1022.5 | 6.1 | N | 0 | 0.0 |
| 05.03.2026 | 04:14 | 3.3 | 89 | 1.7 | 1022.5 | 8.3 | N | 0 | 0.0 |
| 05.03.2026 | 04:19 | 3.3 | 89 | 1.7 | 1022.4 | 6.1 | NNW | 0 | 0.0 |
| 05.03.2026 | 04:24 | 3.3 | 89 | 1.7 | 1022.4 | 8.3 | NNW | 0 | 0.0 |
| 05.03.2026 | 04:29 | 3.3 | 89 | 1.7 | 1022.4 | 6.1 | NNW | 0 | 0.0 |
| 05.03.2026 | 04:34 | 3.3 | 89 | 1.7 | 1022.4 | 6.1 | NNW | 0 | 0.0 |
| 05.03.2026 | 04:39 | 3.2 | 89 | 1.6 | 1022.4 | 8.3 | N | 0 | 0.0 |
| 05.03.2026 | 04:44 | 3.2 | 89 | 1.6 | 1022.4 | 6.1 | NW | 0 | 0.0 |
| 05.03.2026 | 04:49 | 3.1 | 89 | 1.5 | 1022.3 | 6.1 | NNW | 0 | 0.0 |
| 05.03.2026 | 04:54 | 2.9 | 89 | 1.3 | 1022.4 | 4.3 | NNW | 0 | 0.0 |
| 05.03.2026 | 04:59 | 3.0 | 89 | 1.4 | 1022.4 | 4.3 | NNW | 0 | 0.0 |
| 05.03.2026 | 05:04 | 2.9 | 90 | 1.4 | 1022.4 | 6.1 | NNW | 0 | 0.0 |
| 05.03.2026 | 05:09 | 2.9 | 89 | 1.3 | 1022.4 | 4.3 | NNW | 0 | 0.0 |
| 05.03.2026 | 05:14 | 2.8 | 89 | 1.2 | 1022.3 | 4.3 | NNW | 0 | 0.0 |
| 05.03.2026 | 05:19 | 2.9 | 90 | 1.4 | 1022.3 | 1.8 | NNW | 0 | 0.0 |
| 05.03.2026 | 05:24 | 2.8 | 90 | 1.3 | 1022.2 | 6.1 | NNW | 0 | 0.0 |
| 05.03.2026 | 05:29 | 2.8 | 90 | 1.3 | 1022.2 | 4.3 | N | 0 | 0.0 |
| 05.03.2026 | 05:34 | 2.7 | 90 | 1.2 | 1022.2 | 4.3 | N | 0 | 0.0 |
| 05.03.2026 | 05:39 | 2.5 | 90 | 1.0 | 1022.2 | 1.8 | N | 0 | 0.0 |
| 05.03.2026 | 05:44 | 2.5 | 90 | 1.0 | 1022.2 | 4.3 | N | 0 | 0.0 |
| 05.03.2026 | 05:49 | 2.4 | 90 | 0.9 | 1022.2 | 6.1 | NNW | 0 | 0.0 |
| 05.03.2026 | 05:55 | 2.4 | 90 | 0.9 | 1022.2 | 4.3 | NNW | 0 | 0.0 |
| 05.03.2026 | 06:00 | 2.3 | 90 | 0.8 | 1022.2 | 4.3 | NNW | 0 | 0.0 |
| 05.03.2026 | 06:05 | 2.3 | 91 | 1.0 | 1022.1 | 6.1 | NNW | 0 | 0.0 |
| 05.03.2026 | 06:10 | 2.3 | 91 | 1.0 | 1022.1 | 4.3 | NNW | 0 | 0.0 |
| 05.03.2026 | 06:15 | 2.3 | 91 | 1.0 | 1022.1 | 6.1 | NNW | 0 | 0.0 |
| 05.03.2026 | 06:20 | 2.3 | 91 | 1.0 | 1022.0 | 8.3 | NNW | 0 | 0.0 |
| 05.03.2026 | 06:25 | 2.3 | 91 | 1.0 | 1022.1 | 4.3 | NNW | 0 | 0.0 |
| 05.03.2026 | 06:30 | 2.2 | 91 | 0.9 | 1022.1 | 4.3 | NNW | 0 | 0.0 |
| 05.03.2026 | 06:35 | 2.2 | 91 | 0.9 | 1022.1 | 6.1 | NNW | 0 | 0.0 |
| 05.03.2026 | 06:40 | 2.2 | 91 | 0.9 | 1022.1 | 6.1 | NNW | 0 | 0.0 |
| 05.03.2026 | 06:45 | 2.2 | 91 | 0.9 | 1022.1 | 6.1 | NNW | 0 | 0.0 |
| 05.03.2026 | 06:50 | 2.2 | 91 | 0.9 | 1022.1 | 4.3 | NNW | 0 | 0.0 |
| 05.03.2026 | 06:55 | 2.2 | 91 | 0.9 | 1022.1 | 6.1 | NNW | 5 | 0.0 |
| 05.03.2026 | 07:00 | 2.1 | 91 | 0.8 | 1022.1 | 6.1 | NNW | 5 | 0.0 |
| 05.03.2026 | 07:05 | 2.1 | 91 | 0.8 | 1022.1 | 4.3 | NNW | 7 | 0.0 |
| 05.03.2026 | 07:10 | 2.0 | 91 | 0.7 | 1022.0 | 6.1 | NNW | 11 | 0.0 |
| 05.03.2026 | 07:15 | 2.0 | 91 | 0.7 | 1022.0 | 4.3 | NNW | 12 | 0.0 |
| 05.03.2026 | 07:20 | 1.9 | 92 | 0.7 | 1022.0 | 1.8 | NNW | 16 | 0.0 |
| 05.03.2026 | 07:25 | 2.1 | 92 | 0.9 | 1022.0 | 6.1 | NNW | 18 | 0.0 |
| 05.03.2026 | 07:30 | 2.1 | 92 | 0.9 | 1022.0 | 1.8 | NNW | 19 | 0.0 |
| 05.03.2026 | 07:35 | 2.2 | 92 | 1.0 | 1022.0 | 6.1 | N | 23 | 0.0 |
| 05.03.2026 | 07:40 | 2.2 | 92 | 1.0 | 1021.9 | 4.3 | NNW | 25 | 0.0 |
| 05.03.2026 | 07:45 | 2.4 | 92 | 1.2 | 1021.9 | 4.3 | N | 56 | 0.0 |
| 05.03.2026 | 07:50 | 2.4 | 92 | 1.2 | 1021.9 | 6.1 | NNW | 46 | 0.0 |
| 05.03.2026 | 07:55 | 2.6 | 92 | 1.4 | 1021.9 | 6.1 | NNW | 63 | 0.0 |
| 05.03.2026 | 08:00 | 2.8 | 91 | 1.5 | 1021.9 | 1.8 | NNW | 79 | 0.0 |
| 05.03.2026 | 08:05 | 2.9 | 91 | 1.6 | 1021.9 | 4.3 | N | 83 | 0.0 |
| 05.03.2026 | 08:10 | 3.1 | 91 | 1.8 | 1021.9 | 4.3 | NNW | 54 | 0.0 |
| 05.03.2026 | 08:15 | 3.3 | 90 | 1.8 | 1022.0 | 6.1 | NNW | 104 | 0.0 |
| 05.03.2026 | 08:20 | 3.6 | 90 | 2.1 | 1022.1 | 6.1 | NNW | 77 | 0.0 |
| 05.03.2026 | 08:25 | 3.8 | 90 | 2.3 | 1022.1 | 4.3 | NNW | 102 | 0.0 |
| 05.03.2026 | 08:30 | 4.0 | 89 | 2.4 | 1022.1 | 6.1 | NW | 97 | 0.0 |
| 05.03.2026 | 08:35 | 4.3 | 89 | 2.6 | 1022.2 | 8.3 | NNW | 118 | 0.0 |
| 05.03.2026 | 08:41 | 4.6 | 88 | 2.8 | 1022.1 | 8.3 | NNW | 90 | 0.0 |
| 05.03.2026 | 08:46 | 4.7 | 88 | 2.9 | 1022.1 | 6.1 | NNW | 178 | 0.0 |
| 05.03.2026 | 08:51 | 4.9 | 87 | 2.9 | 1022.1 | 10.4 | NNO | 190 | 0.0 |
| 05.03.2026 | 08:56 | 5.1 | 87 | 3.1 | 1022.1 | 10.4 | NNW | 114 | 0.0 |
| 05.03.2026 | 09:01 | 5.4 | 86 | 3.2 | 1022.1 | 10.4 | N | 109 | 0.0 |
| 05.03.2026 | 09:06 | 5.6 | 86 | 3.4 | 1022.1 | 6.1 | N | 54 | 0.0 |
| 05.03.2026 | 09:11 | 5.9 | 85 | 3.6 | 1022.1 | 8.3 | NNW | 209 | 0.0 |
| 05.03.2026 | 09:16 | 6.2 | 84 | 3.7 | 1022.1 | 8.3 | NNW | 56 | 0.0 |
| 05.03.2026 | 09:21 | 6.4 | 84 | 3.9 | 1022.1 | 6.1 | NNO | 158 | 0.0 |
| 05.03.2026 | 09:26 | 6.6 | 84 | 4.1 | 1022.1 | 8.3 | NNW | 79 | 0.0 |
| 05.03.2026 | 09:31 | 6.8 | 83 | 4.1 | 1022.1 | 6.1 | NNW | 193 | 0.0 |
| 05.03.2026 | 09:36 | 7.0 | 82 | 4.1 | 1022.1 | 10.4 | NW | 67 | 0.0 |
| 05.03.2026 | 09:41 | 7.1 | 82 | 4.2 | 1022.1 | 4.3 | NO | 135 | 0.0 |
| 05.03.2026 | 09:46 | 7.4 | 82 | 4.5 | 1022.0 | 4.3 | N | 88 | 0.0 |
| 05.03.2026 | 09:51 | 7.6 | 81 | 4.5 | 1022.0 | 6.1 | NNW | 132 | 0.0 |
| 05.03.2026 | 09:56 | 7.8 | 80 | 4.6 | 1022.1 | 6.1 | NNW | 255 | 0.0 |
| 05.03.2026 | 10:01 | 8.1 | 79 | 4.7 | 1022.1 | 1.8 | NNW | 151 | 0.0 |
| 05.03.2026 | 10:06 | 8.3 | 79 | 4.9 | 1022.1 | 4.3 | NNW | 227 | 0.0 |
| 05.03.2026 | 10:11 | 8.3 | 79 | 4.9 | 1022.1 | 8.3 | NNW | 123 | 0.0 |
| 05.03.2026 | 10:16 | 8.6 | 78 | 5.0 | 1022.1 | 4.3 | NW | 329 | 0.0 |
| 05.03.2026 | 10:21 | 8.7 | 78 | 5.1 | 1022.1 | 8.3 | ONO | 278 | 0.0 |
| 05.03.2026 | 10:26 | 8.8 | 77 | 5.0 | 1022.0 | 0.0 | NW | 432 | 0.0 |
| 05.03.2026 | 10:31 | 9.2 | 76 | 5.2 | 1021.9 | 0.0 | N | 329 | 0.0 |
| 05.03.2026 | 10:36 | 9.6 | 76 | 5.6 | 1021.8 | 10.4 | NNW | 316 | 0.0 |
| 05.03.2026 | 10:41 | 9.7 | 77 | 5.9 | 1021.8 | 4.3 | NW | 353 | 0.0 |
| 05.03.2026 | 10:46 | 10.0 | 74 | 5.6 | 1021.8 | 1.8 | WNW | 476 | 0.0 |
| 05.03.2026 | 10:51 | 10.4 | 74 | 6.0 | 1021.7 | 8.3 | N | 494 | 0.0 |
| 05.03.2026 | 10:56 | 10.6 | 74 | 6.2 | 1021.7 | 6.1 | NNW | 380 | 0.0 |
| 05.03.2026 | 11:01 | 10.9 | 73 | 6.3 | 1021.7 | 12.6 | N | 504 | 0.0 |
| 05.03.2026 | 11:06 | 11.1 | 72 | 6.2 | 1021.7 | 8.3 | N | 459 | 0.0 |
| 05.03.2026 | 11:12 | 11.3 | 71 | 6.2 | 1021.7 | 1.8 | NO | 512 | 0.0 |
| 05.03.2026 | 11:17 | 11.8 | 71 | 6.7 | 1021.8 | 8.3 | OSO | 517 | 0.0 |
| 05.03.2026 | 11:22 | 11.9 | 69 | 6.4 | 1021.7 | 1.8 | NNW | 524 | 0.0 |
| 05.03.2026 | 11:27 | 11.9 | 71 | 6.8 | 1021.7 | 8.3 | NO | 536 | 0.0 |
| 05.03.2026 | 11:32 | 12.2 | 69 | 6.7 | 1021.7 | 10.4 | ONO | 536 | 0.0 |
| 05.03.2026 | 11:37 | 12.2 | 69 | 6.7 | 1021.7 | 6.1 | O | 541 | 0.0 |
| 05.03.2026 | 11:42 | 12.6 | 67 | 6.6 | 1021.8 | 1.8 | NNO | 545 | 0.0 |
| 05.03.2026 | 11:47 | 12.6 | 68 | 6.8 | 1021.7 | 8.3 | NO | 552 | 0.0 |
| 05.03.2026 | 11:52 | 12.8 | 68 | 7.0 | 1021.8 | 6.1 | NW | 557 | 0.0 |
| 05.03.2026 | 11:57 | 13.0 | 67 | 7.0 | 1021.7 | 6.1 | O | 554 | 0.0 |
| 05.03.2026 | 12:02 | 13.1 | 67 | 7.1 | 1021.7 | 8.3 | N | 561 | 0.0 |
| 05.03.2026 | 12:07 | 13.2 | 68 | 7.4 | 1021.7 | 10.4 | N | 559 | 0.0 |
| 05.03.2026 | 12:12 | 13.2 | 65 | 6.8 | 1021.6 | 0.0 | W | 563 | 0.0 |
| 05.03.2026 | 12:17 | 13.6 | 66 | 7.4 | 1021.6 | 4.3 | N | 564 | 0.0 |
| 05.03.2026 | 12:22 | 13.8 | 64 | 7.1 | 1021.6 | 6.1 | ONO | 570 | 0.0 |
| 05.03.2026 | 12:27 | 14.1 | 63 | 7.2 | 1021.6 | 8.3 | ONO | 575 | 0.0 |
| 05.03.2026 | 12:32 | 14.2 | 63 | 7.3 | 1021.5 | 8.3 | NW | 577 | 0.0 |
| 05.03.2026 | 12:37 | 14.1 | 64 | 7.4 | 1021.4 | 6.1 | NNW | 575 | 0.0 |
| 05.03.2026 | 12:42 | 14.4 | 63 | 7.4 | 1021.3 | 6.1 | ONO | 578 | 0.0 |
| 05.03.2026 | 12:47 | 14.3 | 65 | 7.8 | 1021.3 | 6.1 | NNW | 575 | 0.0 |
| 05.03.2026 | 12:52 | 14.6 | 64 | 7.9 | 1021.2 | 10.4 | NO | 571 | 0.0 |
| 05.03.2026 | 12:57 | 15.0 | 60 | 7.3 | 1021.1 | 1.8 | O | 575 | 0.0 |
| 05.03.2026 | 13:02 | 15.1 | 60 | 7.4 | 1021.0 | 8.3 | O | 568 | 0.0 |
| 05.03.2026 | 13:07 | 14.8 | 62 | 7.6 | 1021.0 | 12.6 | NNW | 564 | 0.0 |
| 05.03.2026 | 13:12 | 15.0 | 63 | 8.0 | 1021.0 | 6.1 | WNW | 555 | 0.0 |
| 05.03.2026 | 13:17 | 15.3 | 61 | 7.8 | 1020.9 | 4.3 | NW | 557 | 0.0 |
| 05.03.2026 | 13:22 | 15.5 | 61 | 8.0 | 1020.8 | 1.8 | NO | 554 | 0.0 |
| 05.03.2026 | 13:27 | 15.4 | 61 | 7.9 | 1020.8 | 4.3 | ONO | 555 | 0.0 |
| 05.03.2026 | 13:32 | 15.8 | 59 | 7.8 | 1020.7 | 4.3 | ONO | 550 | 0.0 |
| 05.03.2026 | 13:37 | 15.8 | 60 | 8.0 | 1020.6 | 4.3 | ONO | 547 | 0.0 |
| 05.03.2026 | 13:42 | 15.8 | 61 | 8.3 | 1020.6 | 8.3 | NO | 541 | 0.0 |
| 05.03.2026 | 13:47 | 16.0 | 57 | 7.5 | 1020.6 | 6.1 | O | 536 | 0.0 |
| 05.03.2026 | 13:52 | 16.0 | 59 | 8.0 | 1020.5 | 8.3 | NO | 531 | 0.0 |
| 05.03.2026 | 13:58 | 16.2 | 59 | 8.2 | 1020.4 | 16.9 | NNO | 522 | 0.0 |
| 05.03.2026 | 14:03 | 16.3 | 57 | 7.8 | 1020.3 | 10.4 | N | 517 | 0.0 |
| 05.03.2026 | 14:08 | 16.3 | 60 | 8.5 | 1020.2 | 8.3 | NW | 513 | 0.0 |
| 05.03.2026 | 14:13 | 16.4 | 58 | 8.1 | 1020.1 | 6.1 | OSO | 506 | 0.0 |
| 05.03.2026 | 14:18 | 16.6 | 56 | 7.8 | 1020.0 | 6.1 | ONO | 496 | 0.0 |
| 05.03.2026 | 14:23 | 16.7 | 57 | 8.1 | 1020.0 | 8.3 | ONO | 487 | 0.0 |
| 05.03.2026 | 14:28 | 16.6 | 57 | 8.0 | 1019.9 | 10.4 | ONO | 480 | 0.0 |
| 05.03.2026 | 14:33 | 16.7 | 56 | 7.9 | 1019.7 | 14.4 | NO | 469 | 0.0 |
| 05.03.2026 | 14:38 | 16.9 | 58 | 8.6 | 1019.6 | 10.4 | NW | 464 | 0.0 |
| 05.03.2026 | 14:43 | 16.9 | 56 | 8.1 | 1019.6 | 4.3 | O | 457 | 0.0 |
| 05.03.2026 | 14:48 | 17.0 | 55 | 7.9 | 1019.5 | 16.6 | O | 455 | 0.0 |
| 05.03.2026 | 14:53 | 17.2 | 56 | 8.3 | 1019.4 | 10.4 | ONO | 448 | 0.0 |
| 05.03.2026 | 14:58 | 17.2 | 53 | 7.5 | 1019.3 | 14.4 | ONO | 438 | 0.0 |
| 05.03.2026 | 15:03 | 17.2 | 55 | 8.1 | 1019.3 | 6.1 | ONO | 427 | 0.0 |
| 05.03.2026 | 15:08 | 17.4 | 56 | 8.5 | 1019.1 | 12.6 | ONO | 420 | 0.0 |
| 05.03.2026 | 15:13 | 17.3 | 55 | 8.2 | 1019.1 | 10.4 | NO | 408 | 0.0 |
| 05.03.2026 | 15:18 | 17.4 | 54 | 8.0 | 1019.1 | 0.0 | NNW | 397 | 0.0 |
| 05.03.2026 | 15:23 | 17.4 | 54 | 8.0 | 1019.1 | 10.4 | NW | 383 | 0.0 |
| 05.03.2026 | 15:28 | 17.3 | 54 | 7.9 | 1019.1 | 8.3 | ONO | 366 | 0.0 |
| 05.03.2026 | 15:33 | 17.3 | 53 | 7.6 | 1019.0 | 16.9 | O | 352 | 0.0 |
| 05.03.2026 | 15:38 | 17.3 | 53 | 7.6 | 1018.9 | 4.3 | NNO | 327 | 0.0 |
| 05.03.2026 | 15:43 | 17.2 | 54 | 7.8 | 1018.9 | 1.8 | ONO | 308 | 0.0 |
| 05.03.2026 | 15:48 | 17.2 | 54 | 7.8 | 1018.8 | 6.1 | NNO | 301 | 0.0 |
| 05.03.2026 | 15:53 | 17.1 | 54 | 7.7 | 1018.8 | 8.3 | NNW | 287 | 0.0 |
| 05.03.2026 | 15:58 | 17.1 | 53 | 7.4 | 1018.7 | 12.6 | NO | 272 | 0.0 |
| 05.03.2026 | 16:03 | 17.2 | 53 | 7.5 | 1018.7 | 14.4 | NNO | 265 | 0.0 |
| 05.03.2026 | 16:08 | 17.2 | 54 | 7.8 | 1018.7 | 6.1 | NNO | 255 | 0.0 |
| 05.03.2026 | 16:13 | 17.2 | 54 | 7.8 | 1018.6 | 6.1 | NNW | 241 | 0.0 |
| 05.03.2026 | 16:18 | 17.2 | 53 | 7.5 | 1018.6 | 6.1 | NO | 229 | 0.0 |
| 05.03.2026 | 16:23 | 17.1 | 53 | 7.4 | 1018.6 | 4.3 | N | 218 | 0.0 |
| 05.03.2026 | 16:28 | 16.9 | 53 | 7.3 | 1018.5 | 14.4 | ONO | 207 | 0.0 |
| 05.03.2026 | 16:33 | 17.1 | 53 | 7.4 | 1018.5 | 6.1 | NO | 193 | 0.0 |
| 05.03.2026 | 16:38 | 17.0 | 52 | 7.1 | 1018.5 | 8.3 | NNO | 178 | 0.0 |
| 05.03.2026 | 16:43 | 16.8 | 53 | 7.2 | 1018.5 | 8.3 | ONO | 160 | 0.0 |
| 05.03.2026 | 16:49 | 16.8 | 53 | 7.2 | 1018.4 | 8.3 | NW | 146 | 0.0 |
| 05.03.2026 | 16:54 | 16.7 | 53 | 7.1 | 1018.4 | 4.3 | NO | 134 | 0.0 |
| 05.03.2026 | 16:59 | 16.7 | 52 | 6.8 | 1018.4 | 8.3 | NNW | 120 | 0.0 |
| 05.03.2026 | 17:04 | 16.6 | 53 | 7.0 | 1018.4 | 6.1 | NNO | 104 | 0.0 |
| 05.03.2026 | 17:09 | 16.4 | 54 | 7.1 | 1018.3 | 6.1 | NNW | 93 | 0.0 |
| 05.03.2026 | 17:14 | 16.3 | 54 | 7.0 | 1018.2 | 6.1 | N | 62 | 0.0 |
| 05.03.2026 | 17:19 | 16.1 | 54 | 6.8 | 1018.3 | 6.1 | N | 53 | 0.0 |
| 05.03.2026 | 17:24 | 16.1 | 54 | 6.8 | 1018.2 | 1.8 | NNW | 49 | 0.0 |
| 05.03.2026 | 17:29 | 15.9 | 54 | 6.6 | 1018.2 | 1.8 | NNW | 44 | 0.0 |
| 05.03.2026 | 17:34 | 15.7 | 55 | 6.7 | 1018.3 | 1.8 | NNO | 40 | 0.0 |
| 05.03.2026 | 17:39 | 15.4 | 56 | 6.7 | 1018.3 | 4.3 | NO | 37 | 0.0 |
| 05.03.2026 | 17:44 | 15.1 | 57 | 6.6 | 1018.3 | 6.1 | NO | 33 | 0.0 |
| 05.03.2026 | 17:49 | 14.9 | 57 | 6.5 | 1018.3 | 4.3 | NO | 26 | 0.0 |
| 05.03.2026 | 17:54 | 14.9 | 55 | 5.9 | 1018.3 | 8.3 | ONO | 21 | 0.0 |
| 05.03.2026 | 17:59 | 14.8 | 55 | 5.8 | 1018.3 | 8.3 | NO | 18 | 0.0 |
| 05.03.2026 | 18:04 | 14.6 | 56 | 5.9 | 1018.4 | 4.3 | NO | 12 | 0.0 |
| 05.03.2026 | 18:09 | 14.4 | 57 | 6.0 | 1018.4 | 4.3 | N | 7 | 0.0 |
| 05.03.2026 | 18:14 | 14.2 | 57 | 5.8 | 1018.3 | 6.1 | NO | 5 | 0.0 |
| 05.03.2026 | 18:19 | 14.1 | 57 | 5.7 | 1018.3 | 8.3 | NO | 0 | 0.0 |
| 05.03.2026 | 18:24 | 13.8 | 57 | 5.4 | 1018.3 | 4.3 | NNO | 0 | 0.0 |
| 05.03.2026 | 18:29 | 13.6 | 57 | 5.2 | 1018.3 | 1.8 | NNO | 0 | 0.0 |
| 05.03.2026 | 18:34 | 13.4 | 58 | 5.3 | 1018.3 | 6.1 | NNO | 0 | 0.0 |
| 05.03.2026 | 18:39 | 13.2 | 59 | 5.4 | 1018.3 | 4.3 | NO | 0 | 0.0 |
| 05.03.2026 | 18:44 | 12.9 | 60 | 5.3 | 1018.3 | 6.1 | NNO | 0 | 0.0 |
| 05.03.2026 | 18:49 | 12.8 | 60 | 5.2 | 1018.4 | 10.4 | ONO | 0 | 0.0 |
| 05.03.2026 | 18:54 | 12.7 | 61 | 5.4 | 1018.6 | 6.1 | N | 0 | 0.0 |
| 05.03.2026 | 18:59 | 12.6 | 62 | 5.5 | 1018.6 | 4.3 | ONO | 0 | 0.0 |
| 05.03.2026 | 19:04 | 12.4 | 64 | 5.8 | 1018.6 | 4.3 | NO | 0 | 0.0 |
| 05.03.2026 | 19:09 | 12.4 | 64 | 5.8 | 1018.5 | 4.3 | N | 0 | 0.0 |
| 05.03.2026 | 19:14 | 12.4 | 65 | 6.0 | 1018.5 | 4.3 | NO | 0 | 0.0 |
| 05.03.2026 | 19:19 | 12.2 | 66 | 6.0 | 1018.5 | 6.1 | NO | 0 | 0.0 |
| 05.03.2026 | 19:24 | 12.2 | 67 | 6.3 | 1018.5 | 4.3 | NO | 0 | 0.0 |
| 05.03.2026 | 19:29 | 11.9 | 68 | 6.2 | 1018.5 | 1.8 | NO | 0 | 0.0 |
| 05.03.2026 | 19:34 | 11.8 | 68 | 6.1 | 1018.5 | 4.3 | N | 0 | 0.0 |
| 05.03.2026 | 19:40 | 11.6 | 69 | 6.1 | 1018.6 | 4.3 | NO | 0 | 0.0 |
| 05.03.2026 | 19:45 | 11.4 | 70 | 6.1 | 1018.6 | 6.1 | NO | 0 | 0.0 |
| 05.03.2026 | 19:50 | 11.3 | 70 | 6.0 | 1018.7 | 1.8 | NNO | 0 | 0.0 |
| 05.03.2026 | 19:55 | 11.0 | 71 | 5.9 | 1018.7 | 6.1 | NNO | 0 | 0.0 |
| 05.03.2026 | 20:00 | 10.7 | 72 | 5.9 | 1018.7 | 1.8 | N | 0 | 0.0 |
| 05.03.2026 | 20:05 | 10.5 | 72 | 5.7 | 1018.8 | 4.3 | NNW | 0 | 0.0 |
| 05.03.2026 | 20:10 | 10.3 | 73 | 5.7 | 1018.7 | 6.1 | NNW | 0 | 0.0 |
| 05.03.2026 | 20:15 | 10.2 | 74 | 5.8 | 1018.7 | 6.1 | NNW | 0 | 0.0 |
| 05.03.2026 | 20:20 | 10.1 | 74 | 5.7 | 1018.7 | 4.3 | N | 0 | 0.0 |
| 05.03.2026 | 20:25 | 10.1 | 74 | 5.7 | 1018.6 | 6.1 | N | 0 | 0.0 |
| 05.03.2026 | 20:30 | 10.1 | 74 | 5.7 | 1018.7 | 4.3 | NNO | 0 | 0.0 |
| 05.03.2026 | 20:35 | 9.9 | 74 | 5.5 | 1018.7 | 4.3 | NNW | 0 | 0.0 |
| 05.03.2026 | 20:40 | 9.8 | 74 | 5.4 | 1018.7 | 8.3 | NNW | 0 | 0.0 |
| 05.03.2026 | 20:45 | 9.7 | 75 | 5.5 | 1018.8 | 4.3 | NNW | 0 | 0.0 |
| 05.03.2026 | 20:50 | 9.6 | 75 | 5.4 | 1018.7 | 6.1 | N | 0 | 0.0 |
| 05.03.2026 | 20:55 | 9.4 | 75 | 5.2 | 1018.7 | 6.1 | N | 0 | 0.0 |
| 05.03.2026 | 21:00 | 9.4 | 75 | 5.2 | 1018.7 | 6.1 | NNO | 0 | 0.0 |
| 05.03.2026 | 21:05 | 9.3 | 75 | 5.1 | 1018.7 | 4.3 | N | 0 | 0.0 |
| 05.03.2026 | 21:10 | 9.2 | 75 | 5.0 | 1018.7 | 4.3 | NNO | 0 | 0.0 |
| 05.03.2026 | 21:15 | 9.1 | 75 | 4.9 | 1018.7 | 4.3 | N | 0 | 0.0 |
| 05.03.2026 | 21:20 | 9.0 | 75 | 4.8 | 1018.8 | 4.3 | N | 0 | 0.0 |
| 05.03.2026 | 21:25 | 8.8 | 76 | 4.8 | 1018.8 | 8.3 | N | 0 | 0.0 |
| 05.03.2026 | 21:30 | 8.8 | 76 | 4.8 | 1018.8 | 8.3 | NNW | 0 | 0.0 |
| 05.03.2026 | 21:35 | 8.9 | 75 | 4.7 | 1018.8 | 6.1 | NNW | 0 | 0.0 |
| 05.03.2026 | 21:40 | 8.9 | 75 | 4.7 | 1018.8 | 4.3 | NNW | 0 | 0.0 |
| 05.03.2026 | 21:45 | 8.9 | 75 | 4.7 | 1018.7 | 4.3 | N | 0 | 0.0 |
| 05.03.2026 | 21:50 | 8.6 | 76 | 4.6 | 1018.7 | 6.1 | N | 0 | 0.0 |
| 05.03.2026 | 21:55 | 8.6 | 76 | 4.6 | 1018.8 | 4.3 | N | 0 | 0.0 |
| 05.03.2026 | 22:00 | 8.6 | 76 | 4.6 | 1018.9 | 6.1 | NNW | 0 | 0.0 |
| 05.03.2026 | 22:05 | 8.6 | 76 | 4.6 | 1018.9 | 6.1 | NNW | 0 | 0.0 |
| 05.03.2026 | 22:10 | 8.5 | 76 | 4.5 | 1018.9 | 8.3 | NNW | 0 | 0.0 |
| 05.03.2026 | 22:16 | 8.4 | 77 | 4.6 | 1018.9 | 6.1 | NNW | 0 | 0.0 |
| 05.03.2026 | 22:21 | 8.3 | 77 | 4.5 | 1019.0 | 4.3 | NNW | 0 | 0.0 |
| 05.03.2026 | 22:26 | 8.3 | 77 | 4.5 | 1019.0 | 1.8 | NNW | 0 | 0.0 |
| 05.03.2026 | 22:31 | 8.2 | 78 | 4.6 | 1019.0 | 8.3 | NNW | 0 | 0.0 |
| 05.03.2026 | 22:36 | 8.1 | 78 | 4.5 | 1019.0 | 6.1 | NNW | 0 | 0.0 |
| 05.03.2026 | 22:41 | 8.1 | 78 | 4.5 | 1019.0 | 6.1 | NNW | 0 | 0.0 |
| 05.03.2026 | 22:46 | 7.9 | 79 | 4.5 | 1019.0 | 6.1 | NNW | 0 | 0.0 |
| 05.03.2026 | 22:51 | 7.9 | 79 | 4.5 | 1018.9 | 6.1 | N | 0 | 0.0 |
| 05.03.2026 | 22:56 | 7.9 | 79 | 4.5 | 1019.0 | 8.3 | NNW | 0 | 0.0 |
| 05.03.2026 | 23:01 | 7.9 | 79 | 4.5 | 1018.9 | 8.3 | NNW | 0 | 0.0 |
| 05.03.2026 | 23:06 | 7.9 | 79 | 4.5 | 1019.0 | 6.1 | NNW | 0 | 0.0 |
| 05.03.2026 | 23:11 | 7.8 | 79 | 4.4 | 1019.0 | 4.3 | N | 0 | 0.0 |
| 05.03.2026 | 23:16 | 7.8 | 79 | 4.4 | 1019.0 | 4.3 | N | 0 | 0.0 |
| 05.03.2026 | 23:21 | 7.8 | 79 | 4.4 | 1019.0 | 4.3 | N | 0 | 0.0 |
| 05.03.2026 | 23:26 | 7.7 | 79 | 4.3 | 1019.1 | 4.3 | N | 0 | 0.0 |
| 05.03.2026 | 23:31 | 7.6 | 79 | 4.2 | 1019.1 | 6.1 | NNW | 0 | 0.0 |
| 05.03.2026 | 23:36 | 7.5 | 80 | 4.3 | 1019.1 | 6.1 | NNW | 0 | 0.0 |
| 05.03.2026 | 23:41 | 7.4 | 80 | 4.2 | 1019.2 | 6.1 | N | 0 | 0.0 |
| 05.03.2026 | 23:46 | 7.4 | 80 | 4.2 | 1019.2 | 6.1 | N | 0 | 0.0 |
| 05.03.2026 | 23:51 | 7.4 | 80 | 4.2 | 1019.3 | 8.3 | NNW | 0 | 0.0 |
| 05.03.2026 | 23:56 | 7.3 | 80 | 4.1 | 1019.2 | 4.3 | N | 0 | 0.0 |